createdAt,value
2022-11-12T00:01:39.171Z,6.61
2022-11-12T00:04:06.943Z,6.50
2022-11-12T00:06:33.520Z,6.35
2022-11-12T00:09:00.092Z,6.31
2022-11-12T00:11:26.540Z,6.35
2022-11-12T00:13:52.970Z,6.34
2022-11-12T00:16:19.405Z,6.29
2022-11-12T00:18:48.252Z,6.18
2022-11-12T00:21:14.694Z,6.15
2022-11-12T00:23:41.192Z,6.04
2022-11-12T00:26:07.621Z,6.05
2022-11-12T00:28:37.989Z,5.93
2022-11-12T00:31:09.752Z,5.87
2022-11-12T00:33:40.945Z,5.78
2022-11-12T00:36:09.859Z,5.84
2022-11-12T00:38:36.618Z,5.71
2022-11-12T00:41:03.147Z,5.70
2022-11-12T00:43:29.633Z,5.69
2022-11-12T00:45:58.603Z,5.69
2022-11-12T00:48:25.481Z,5.70
2022-11-12T00:50:58.749Z,5.65
2022-11-12T00:53:25.242Z,5.63
2022-11-12T00:55:51.763Z,5.53
2022-11-12T01:01:40.800Z,5.82
2022-11-12T01:04:08.345Z,5.71
2022-11-12T01:06:34.866Z,5.71
2022-11-12T01:09:05.414Z,5.70
2022-11-12T01:11:32.108Z,5.78
2022-11-12T01:14:01.269Z,5.80
2022-11-12T01:16:31.608Z,5.74
2022-11-12T01:19:01.171Z,5.60
2022-11-12T01:21:30.847Z,5.53
2022-11-12T01:23:59.439Z,5.50
2022-11-12T01:26:30.302Z,5.65
2022-11-12T01:28:59.651Z,5.80
2022-11-12T01:31:35.303Z,6.08
2022-11-12T01:34:05.874Z,5.98
2022-11-12T01:36:38.158Z,5.77
2022-11-12T01:39:08.941Z,5.74
2022-11-12T01:41:38.526Z,5.70
2022-11-12T01:44:15.824Z,5.90
2022-11-12T01:47:15.307Z,5.83
2022-11-12T01:49:54.243Z,5.71
2022-11-12T01:52:29.551Z,5.65
2022-11-12T01:55:01.554Z,5.95
2022-11-12T01:57:34.981Z,6.10
2022-11-12T02:00:06.825Z,5.66
2022-11-12T02:02:35.113Z,5.42
2022-11-12T02:05:03.453Z,5.42
2022-11-12T02:07:32.173Z,5.43
2022-11-12T02:10:01.470Z,5.59
2022-11-12T02:12:46.917Z,5.69
2022-11-12T02:15:13.623Z,5.74
2022-11-12T02:17:40.164Z,5.89
2022-11-12T02:20:10.374Z,5.90
2022-11-12T02:22:36.870Z,5.74
2022-11-12T02:25:03.896Z,5.49
2022-11-12T02:27:30.516Z,5.53
2022-11-12T02:29:57.000Z,5.74
2022-11-12T02:32:23.595Z,5.67
2022-11-12T02:34:50.093Z,5.50
2022-11-12T02:37:17.648Z,5.43
2022-11-12T02:39:44.125Z,5.32
2022-11-12T02:42:10.640Z,5.34
2022-11-12T02:44:37.183Z,5.43
2022-11-12T02:47:04.030Z,5.52
2022-11-12T02:49:30.607Z,5.49
2022-11-12T02:51:57.424Z,5.42
2022-11-12T02:54:26.368Z,5.40
2022-11-12T02:56:52.859Z,5.47
2022-11-12T02:59:19.402Z,5.56
2022-11-12T03:01:46.616Z,5.52
2022-11-12T03:04:13.346Z,5.47
2022-11-12T03:06:40.423Z,5.40
2022-11-12T03:09:07.036Z,5.36
2022-11-12T03:11:33.512Z,5.34
2022-11-12T03:14:02.323Z,5.35
2022-11-12T03:16:29.106Z,5.42
2022-11-12T03:18:55.655Z,5.42
2022-11-12T03:21:22.510Z,5.52
2022-11-12T03:23:48.973Z,5.56
2022-11-12T03:26:20.634Z,5.46
2022-11-12T03:28:47.213Z,4.97
2022-11-12T03:31:13.726Z,4.92
2022-11-12T03:33:40.462Z,4.88
2022-11-12T03:36:07.600Z,4.78
2022-11-12T03:38:34.170Z,4.83
2022-11-12T03:41:00.795Z,4.85
2022-11-12T03:43:27.387Z,4.76
2022-11-12T03:45:53.881Z,4.70
2022-11-12T03:48:20.377Z,4.71
2022-11-12T03:50:47.169Z,4.73
2022-11-12T03:53:13.656Z,4.71
2022-11-12T03:55:40.351Z,4.63
2022-11-12T03:58:07.008Z,4.71
2022-11-12T04:00:33.456Z,4.77
2022-11-12T04:03:00.494Z,4.88
2022-11-12T04:05:45.934Z,4.94
2022-11-12T04:08:31.152Z,5.01
2022-11-12T04:10:57.832Z,5.01
2022-11-12T04:13:30.568Z,5.09
2022-11-12T04:16:23.650Z,5.04
2022-11-12T04:19:11.212Z,4.98
2022-11-12T04:21:51.765Z,5.12
2022-11-12T04:24:41.289Z,5.04
2022-11-12T04:27:16.723Z,5.03
2022-11-12T04:30:03.662Z,5.01
2022-11-12T04:32:32.343Z,5.01
2022-11-12T04:34:59.440Z,5.01
2022-11-12T04:37:28.579Z,4.98
2022-11-12T04:39:55.219Z,4.92
2022-11-12T04:42:40.166Z,4.98
2022-11-12T04:45:10.580Z,5.05
2022-11-12T04:47:39.560Z,5.05
2022-11-12T04:50:12.873Z,5.04
2022-11-12T04:52:39.410Z,5.03
2022-11-12T04:55:06.475Z,5.03
2022-11-12T04:57:33.145Z,5.01
2022-11-12T04:59:59.637Z,5.05
2022-11-12T05:02:26.174Z,4.91
2022-11-12T05:04:52.655Z,4.89
2022-11-12T05:07:19.302Z,4.88
2022-11-12T05:09:45.862Z,4.80
2022-11-12T05:12:12.419Z,4.68
2022-11-12T05:14:41.345Z,4.70
2022-11-12T05:17:07.923Z,4.71
2022-11-12T05:19:35.107Z,4.80
2022-11-12T05:22:17.364Z,4.81
2022-11-12T05:24:44.712Z,4.83
2022-11-12T05:27:14.049Z,4.87
2022-11-12T05:29:40.810Z,4.88
2022-11-12T05:32:08.838Z,4.83
2022-11-12T05:34:35.277Z,4.71
2022-11-12T05:37:02.935Z,4.54
2022-11-12T05:39:29.508Z,4.60
2022-11-12T05:42:12.432Z,4.60
2022-11-12T05:44:40.226Z,4.73
2022-11-12T05:47:06.739Z,4.78
2022-11-12T05:49:33.197Z,4.76
2022-11-12T05:51:59.691Z,4.78
2022-11-12T05:54:26.270Z,4.63
2022-11-12T05:56:53.733Z,4.61
2022-11-12T05:59:20.566Z,4.53
2022-11-12T06:01:47.699Z,4.53
2022-11-12T06:04:15.462Z,4.52
2022-11-12T06:06:42.959Z,4.57
2022-11-12T06:09:10.197Z,4.57
2022-11-12T06:11:37.264Z,4.54
2022-11-12T06:14:04.541Z,4.53
2022-11-12T06:16:31.515Z,4.57
2022-11-12T06:18:58.549Z,4.49
2022-11-12T06:21:27.152Z,4.50
2022-11-12T06:23:58.954Z,4.47
2022-11-12T06:26:28.187Z,4.50
2022-11-12T06:28:55.528Z,4.52
2022-11-12T06:31:23.101Z,4.46
2022-11-12T06:33:50.190Z,4.50
2022-11-12T06:36:19.619Z,4.46
2022-11-12T06:38:46.635Z,4.49
2022-11-12T06:41:14.017Z,4.52
2022-11-12T06:43:41.412Z,4.54
2022-11-12T06:46:14.734Z,4.54
2022-11-12T06:48:46.523Z,4.57
2022-11-12T06:51:18.719Z,4.56
2022-11-12T06:53:46.347Z,4.68
2022-11-12T06:56:13.382Z,4.61
2022-11-12T06:58:40.111Z,4.66
2022-11-12T07:01:11.906Z,4.74
2022-11-12T07:03:41.893Z,4.61
2022-11-12T07:06:11.275Z,4.61
2022-11-12T07:08:38.561Z,4.76
2022-11-12T07:11:05.906Z,4.76
2022-11-12T07:13:34.343Z,4.71
2022-11-12T07:16:01.874Z,4.74
2022-11-12T07:18:29.461Z,4.74
2022-11-12T07:21:07.518Z,4.83
2022-11-12T07:23:35.340Z,5.07
2022-11-12T07:26:03.379Z,5.50
2022-11-12T07:28:30.543Z,6.05
2022-11-12T07:33:40.123Z,6.84
2022-11-12T07:36:08.860Z,6.82
2022-11-12T07:38:38.088Z,7.20
2022-11-12T07:41:05.801Z,7.14
2022-11-12T07:43:36.946Z,7.64
2022-11-12T07:46:11.075Z,7.96
2022-11-12T07:48:38.645Z,7.96
2022-11-12T07:51:14.423Z,8.14
2022-11-12T07:53:42.037Z,8.54
2022-11-12T07:56:11.647Z,8.78
2022-11-12T07:58:38.170Z,8.95
2022-11-12T08:01:30.130Z,9.61
2022-11-12T08:03:57.579Z,9.75
2022-11-12T08:06:24.921Z,9.82
2022-11-12T08:08:52.504Z,9.41
2022-11-12T08:11:19.135Z,9.24
2022-11-12T08:13:45.723Z,9.70
2022-11-12T08:16:12.284Z,10.61
2022-11-12T08:18:39.194Z,10.81
2022-11-12T08:21:08.077Z,10.28
2022-11-12T08:23:35.363Z,11.21
2022-11-12T08:26:04.229Z,11.63
2022-11-12T08:28:32.675Z,11.32
2022-11-12T08:31:07.854Z,11.48
2022-11-12T08:33:35.072Z,11.62
2022-11-12T08:36:05.994Z,11.29
2022-11-12T08:38:32.821Z,11.60
2022-11-12T08:41:07.881Z,12.24
2022-11-12T08:43:35.077Z,12.28
2022-11-12T08:46:02.630Z,12.76
2022-11-12T08:48:30.691Z,12.88
2022-11-12T08:50:57.800Z,13.02
2022-11-12T08:53:24.861Z,13.30
2022-11-12T08:55:55.681Z,13.17
2022-11-12T08:58:22.673Z,13.69
2022-11-12T09:00:50.943Z,13.71
2022-11-12T09:03:19.942Z,13.53
2022-11-12T09:05:46.744Z,13.37
2022-11-12T09:08:16.182Z,13.47
2022-11-12T09:10:42.938Z,13.15
2022-11-12T09:13:09.698Z,12.92
2022-11-12T09:15:38.408Z,13.03
2022-11-12T09:18:08.144Z,13.07
2022-11-12T09:20:34.819Z,13.46
2022-11-12T09:23:03.815Z,13.55
2022-11-12T09:25:30.776Z,13.40
2022-11-12T09:27:57.397Z,13.61
2022-11-12T09:30:24.245Z,13.54
2022-11-12T09:32:56.605Z,13.99
2022-11-12T09:35:23.484Z,14.26
2022-11-12T09:37:50.144Z,14.36
2022-11-12T09:40:19.124Z,14.40
2022-11-12T09:42:51.412Z,14.73
2022-11-12T09:45:30.794Z,15.33
2022-11-12T09:48:04.884Z,15.46
2022-11-12T09:50:38.280Z,14.49
2022-11-12T09:53:30.336Z,14.81
2022-11-12T09:55:57.037Z,14.74
2022-11-12T09:58:26.127Z,14.96
2022-11-12T10:01:00.970Z,14.99
2022-11-12T10:03:38.891Z,15.56
2022-11-12T10:06:19.394Z,15.74
2022-11-12T10:09:08.405Z,15.24
2022-11-12T10:12:10.571Z,15.08
2022-11-12T10:15:23.181Z,14.85
2022-11-12T10:18:24.957Z,15.06
2022-11-12T10:21:32.839Z,15.50
2022-11-12T10:24:01.991Z,16.08
2022-11-12T10:26:32.679Z,16.05
2022-11-12T10:29:14.097Z,15.98
2022-11-12T10:31:40.628Z,15.90
2022-11-12T10:34:17.642Z,16.72
2022-11-12T10:36:50.075Z,16.84
2022-11-12T10:39:35.336Z,16.24
2022-11-12T10:42:12.003Z,16.63
2022-11-12T10:44:40.058Z,16.69
2022-11-12T10:47:27.226Z,16.71
2022-11-12T10:50:25.146Z,16.36
2022-11-12T10:52:54.939Z,16.08
2022-11-12T10:55:27.768Z,16.26
2022-11-12T10:58:09.378Z,16.00
2022-11-12T11:00:38.063Z,16.28
2022-11-12T11:03:19.404Z,16.52
2022-11-12T11:05:56.690Z,16.90
2022-11-12T11:08:37.843Z,16.84
2022-11-12T11:11:31.661Z,16.36
2022-11-12T11:14:23.658Z,16.65
2022-11-12T11:17:17.405Z,16.32
2022-11-12T11:19:44.087Z,16.75
2022-11-12T11:22:28.659Z,16.29
2022-11-12T11:25:17.884Z,16.22
2022-11-12T11:28:35.604Z,16.28
2022-11-12T11:31:44.027Z,16.25
2022-11-12T11:34:31.370Z,16.63
2022-11-12T11:37:00.534Z,16.62
2022-11-12T11:39:51.812Z,16.92
2022-11-12T11:42:18.247Z,16.59
2022-11-12T11:45:08.352Z,16.99
2022-11-12T11:48:02.028Z,17.34
2022-11-12T11:50:37.243Z,17.63
2022-11-12T11:53:20.411Z,17.59
2022-11-12T11:55:57.507Z,17.47
2022-11-12T11:58:36.575Z,17.08
2022-11-12T12:01:03.009Z,17.38
2022-11-12T12:04:02.096Z,17.37
2022-11-12T12:06:32.227Z,17.47
2022-11-12T12:09:22.062Z,17.42
2022-11-12T12:11:57.408Z,17.23
2022-11-12T12:14:40.671Z,17.54
2022-11-12T12:17:49.060Z,17.40
2022-11-12T12:20:43.776Z,17.27
2022-11-12T12:23:29.243Z,17.18
2022-11-12T12:26:00.603Z,17.44
2022-11-12T12:28:55.309Z,17.45
2022-11-12T12:31:26.913Z,17.34
2022-11-12T12:33:58.197Z,17.14
2022-11-12T12:36:35.216Z,17.55
2022-11-12T12:39:04.477Z,18.14
2022-11-12T12:41:43.450Z,17.59
2022-11-12T12:44:10.757Z,17.73
2022-11-12T12:46:47.935Z,17.21
2022-11-12T12:49:19.099Z,17.62
2022-11-12T12:51:45.806Z,17.48
2022-11-12T12:54:37.291Z,17.83
2022-11-12T12:57:04.800Z,18.71
2022-11-12T12:59:31.725Z,18.82
2022-11-12T13:02:01.228Z,19.10
2022-11-12T13:04:53.740Z,18.54
2022-11-12T13:07:39.264Z,18.51
2022-11-12T13:10:37.372Z,18.23
2022-11-12T13:13:32.583Z,17.95
2022-11-12T13:16:00.105Z,17.54
2022-11-12T13:18:38.631Z,17.69
2022-11-12T13:21:17.445Z,17.76
2022-11-12T13:24:04.648Z,17.37
2022-11-12T13:26:51.537Z,17.54
2022-11-12T13:29:27.119Z,18.05
2022-11-12T13:32:32.409Z,18.05
2022-11-12T13:35:17.884Z,18.50
2022-11-12T13:37:47.382Z,18.55
2022-11-12T13:40:17.333Z,18.67
2022-11-12T13:42:49.790Z,18.87
2022-11-12T13:45:23.697Z,18.87
2022-11-12T13:47:51.462Z,19.59
2022-11-12T13:50:22.274Z,19.36
2022-11-12T13:52:49.842Z,19.54
2022-11-12T13:55:21.971Z,19.78
2022-11-12T13:57:52.381Z,20.01
2022-11-12T14:00:21.810Z,20.24
2022-11-12T14:03:08.439Z,19.70
2022-11-12T14:05:36.306Z,19.63
2022-11-12T14:08:17.495Z,19.59
2022-11-12T14:11:05.585Z,19.85
2022-11-12T14:13:35.054Z,19.53
2022-11-12T14:16:15.794Z,19.59
2022-11-12T14:19:14.500Z,19.06
2022-11-12T14:21:40.995Z,19.05
2022-11-12T14:24:11.235Z,18.92
2022-11-12T14:26:40.074Z,19.15
2022-11-12T14:29:07.225Z,18.84
2022-11-12T14:31:33.758Z,18.09
2022-11-12T14:34:28.044Z,17.65
2022-11-12T14:36:56.156Z,17.61
2022-11-12T14:39:26.053Z,17.51
2022-11-12T14:41:54.131Z,17.61
2022-11-12T14:44:28.620Z,17.75
2022-11-12T14:46:57.306Z,17.82
2022-11-12T14:49:40.664Z,17.78
2022-11-12T14:52:20.162Z,17.89
2022-11-12T14:55:16.221Z,17.71
2022-11-12T14:57:43.456Z,17.38
2022-11-12T15:00:21.193Z,17.04
2022-11-12T15:02:57.834Z,16.89
2022-11-12T15:05:27.924Z,16.69
2022-11-12T15:08:10.188Z,16.68
2022-11-12T15:10:43.909Z,16.48
2022-11-12T15:13:23.702Z,16.34
2022-11-12T15:16:08.047Z,16.24
2022-11-12T15:18:36.881Z,16.13
2022-11-12T15:21:06.927Z,15.98
2022-11-12T15:23:33.591Z,15.70
2022-11-12T15:26:01.554Z,15.54
2022-11-12T15:28:28.295Z,15.47
2022-11-12T15:31:20.868Z,15.35
2022-11-12T15:33:47.527Z,15.33
2022-11-12T15:36:19.456Z,15.21
2022-11-12T15:38:54.249Z,15.09
2022-11-12T15:41:30.588Z,14.98
2022-11-12T15:43:57.286Z,14.87
2022-11-12T15:46:23.907Z,14.77
2022-11-12T15:48:55.738Z,14.68
2022-11-12T15:51:23.063Z,14.59
2022-11-12T15:53:49.527Z,14.53
2022-11-12T15:56:19.165Z,14.44
2022-11-12T15:58:45.744Z,14.38
2022-11-12T16:01:12.926Z,14.26
2022-11-12T16:03:39.961Z,14.20
2022-11-12T16:06:09.338Z,14.12
2022-11-12T16:08:36.050Z,14.06
2022-11-12T16:11:02.545Z,14.01
2022-11-12T16:13:34.531Z,13.96
2022-11-12T16:16:05.037Z,13.92
2022-11-12T16:18:31.502Z,13.88
2022-11-12T16:20:58.007Z,13.77
2022-11-12T16:23:24.843Z,13.67
2022-11-12T16:25:51.652Z,13.57
2022-11-12T16:28:19.031Z,13.53
2022-11-12T16:30:47.638Z,13.51
2022-11-12T16:33:14.304Z,13.46
2022-11-12T16:35:41.006Z,13.20
2022-11-12T16:38:15.100Z,13.26
2022-11-12T16:40:42.845Z,13.30
2022-11-12T16:43:09.384Z,13.33
2022-11-12T16:45:39.843Z,13.27
2022-11-12T16:48:20.747Z,13.26
2022-11-12T16:50:48.040Z,13.30
2022-11-12T16:53:14.996Z,13.37
2022-11-12T16:55:41.889Z,13.36
2022-11-12T16:58:13.890Z,13.36
2022-11-12T17:00:43.801Z,13.33
2022-11-12T17:03:14.185Z,13.36
2022-11-12T17:05:40.838Z,13.34
2022-11-12T17:08:09.513Z,13.36
2022-11-12T17:10:36.381Z,13.22
2022-11-12T17:13:02.888Z,13.06
2022-11-12T17:15:29.426Z,12.95
2022-11-12T17:17:55.990Z,12.75
2022-11-12T17:20:22.598Z,12.72
2022-11-12T17:22:49.115Z,12.62
2022-11-12T17:25:15.634Z,12.52
2022-11-12T17:27:42.326Z,12.39
2022-11-12T17:30:09.249Z,12.31
2022-11-12T17:32:35.684Z,12.17
2022-11-12T17:35:02.192Z,12.24
2022-11-12T17:37:28.640Z,12.24
2022-11-12T17:39:55.206Z,12.27
2022-11-12T17:42:21.921Z,12.41
2022-11-12T17:44:49.013Z,12.44
2022-11-12T17:47:15.481Z,12.48
2022-11-12T17:49:42.527Z,12.42
2022-11-12T17:52:09.101Z,12.41
2022-11-12T17:54:36.583Z,12.37
2022-11-12T17:57:03.098Z,12.25
2022-11-12T17:59:29.599Z,12.11
2022-11-12T18:01:56.084Z,11.94
2022-11-12T18:04:24.007Z,11.82
2022-11-12T18:06:50.761Z,11.89
2022-11-12T18:09:17.433Z,11.82
2022-11-12T18:11:49.412Z,11.86
2022-11-12T18:14:16.375Z,12.00
2022-11-12T18:16:42.953Z,12.01
2022-11-12T18:19:11.128Z,12.10
2022-11-12T18:21:39.892Z,12.16
2022-11-12T18:24:07.008Z,12.18
2022-11-12T18:26:33.856Z,12.11
2022-11-12T18:29:00.575Z,12.13
2022-11-12T18:31:27.763Z,12.10
2022-11-12T18:33:55.140Z,12.13
2022-11-12T18:36:24.746Z,12.04
2022-11-12T18:38:55.679Z,12.01
2022-11-12T18:41:25.928Z,11.94
2022-11-12T18:43:53.492Z,11.86
2022-11-12T18:46:20.023Z,11.86
2022-11-12T18:48:47.513Z,11.86
2022-11-12T18:51:16.118Z,11.82
2022-11-12T18:53:43.601Z,11.82
2022-11-12T18:58:39.677Z,11.78
2022-11-12T19:01:08.803Z,11.78
2022-11-12T19:03:36.851Z,11.86
2022-11-12T19:06:06.513Z,11.76
2022-11-12T19:08:33.251Z,11.73
2022-11-12T19:11:01.294Z,11.70
2022-11-12T19:13:28.563Z,11.66
2022-11-12T19:16:02.177Z,11.70
2022-11-12T19:18:31.488Z,11.69
2022-11-12T19:21:17.602Z,11.70
2022-11-12T19:23:44.550Z,11.70
2022-11-12T19:26:12.860Z,11.66
2022-11-12T19:28:39.903Z,11.59
2022-11-12T19:31:10.659Z,11.58
2022-11-12T19:33:37.190Z,11.58
2022-11-12T19:36:09.458Z,11.53
2022-11-12T19:38:35.920Z,11.50
2022-11-12T19:41:06.789Z,11.46
2022-11-12T19:43:33.871Z,11.28
2022-11-12T19:46:00.852Z,11.27
2022-11-12T19:48:27.698Z,11.21
2022-11-12T19:50:55.111Z,11.24
2022-11-12T19:53:21.592Z,11.18
2022-11-12T19:55:48.137Z,11.12
2022-11-12T19:58:14.596Z,11.07
2022-11-12T20:00:41.391Z,10.98
2022-11-12T20:03:07.946Z,10.90
2022-11-12T20:05:34.460Z,10.77
2022-11-12T20:08:01.023Z,10.81
2022-11-12T20:10:27.572Z,10.74
2022-11-12T20:12:54.635Z,10.70
2022-11-12T20:15:21.121Z,10.71
2022-11-12T20:17:47.597Z,10.70
2022-11-12T20:20:14.063Z,10.69
2022-11-12T20:22:40.518Z,10.63
2022-11-12T20:25:07.327Z,10.71
2022-11-12T20:27:33.834Z,10.69
2022-11-12T20:30:00.281Z,10.64
2022-11-12T20:32:26.776Z,10.64
2022-11-12T20:34:53.231Z,10.56
2022-11-12T20:37:19.735Z,10.53
2022-11-12T20:39:46.633Z,10.49
2022-11-12T20:42:13.136Z,10.48
2022-11-12T20:44:39.655Z,10.50
2022-11-12T20:47:06.142Z,10.46
2022-11-12T20:49:32.645Z,10.49
2022-11-12T20:51:59.119Z,10.48
2022-11-12T20:54:25.912Z,10.40
2022-11-12T20:56:52.452Z,10.40
2022-11-12T20:59:18.893Z,10.29
2022-11-12T21:01:45.459Z,10.15
2022-11-12T21:04:12.505Z,10.08
2022-11-12T21:06:39.057Z,10.06
2022-11-12T21:09:05.633Z,10.03
2022-11-12T21:11:32.204Z,9.95
2022-11-12T21:14:01.093Z,9.80
2022-11-12T21:16:27.637Z,9.69
2022-11-12T21:18:54.096Z,9.73
2022-11-12T21:21:21.433Z,9.60
2022-11-12T21:23:51.567Z,9.64
2022-11-12T21:26:22.701Z,9.57
2022-11-12T21:28:51.339Z,9.57
2022-11-12T21:31:26.903Z,9.53
2022-11-12T21:34:00.259Z,9.51
2022-11-12T21:36:28.110Z,9.48
2022-11-12T21:38:54.585Z,9.33
2022-11-12T21:41:25.313Z,9.29
2022-11-12T21:43:52.487Z,9.23
2022-11-12T21:46:23.051Z,9.18
2022-11-12T21:48:54.732Z,9.16
2022-11-12T21:51:24.397Z,9.09
2022-11-12T21:53:55.734Z,9.03
2022-11-12T21:56:22.988Z,9.05
2022-11-12T21:58:49.593Z,9.05
2022-11-12T22:01:21.461Z,9.03
2022-11-12T22:03:50.064Z,8.99
2022-11-12T22:06:17.795Z,8.95
2022-11-12T22:08:44.646Z,8.93
2022-11-12T22:11:16.021Z,8.88
2022-11-12T22:13:42.694Z,8.89
2022-11-12T22:16:11.801Z,8.79
2022-11-12T22:18:38.461Z,8.79
2022-11-12T22:21:07.516Z,8.79
2022-11-12T22:23:36.174Z,8.74
2022-11-12T22:26:06.262Z,8.75
2022-11-12T22:28:34.421Z,8.69
2022-11-12T22:31:10.999Z,8.69
2022-11-12T22:33:38.021Z,8.75
2022-11-12T22:36:13.267Z,8.69
2022-11-12T22:38:41.922Z,8.69
2022-11-12T22:41:11.122Z,8.64
2022-11-12T22:43:38.070Z,8.61
2022-11-12T22:46:13.877Z,8.61
2022-11-12T22:48:41.447Z,8.53
2022-11-12T22:51:13.549Z,8.47
2022-11-12T22:53:40.596Z,8.47
2022-11-12T22:56:09.609Z,8.41
2022-11-12T22:58:37.067Z,8.40
2022-11-12T23:01:09.815Z,8.38
2022-11-12T23:03:36.632Z,8.37
2022-11-12T23:06:05.579Z,8.30
2022-11-12T23:08:32.619Z,8.24
2022-11-12T23:11:03.753Z,8.23
2022-11-12T23:13:30.312Z,8.19
2022-11-12T23:15:56.781Z,8.22
2022-11-12T23:18:23.265Z,8.16
2022-11-12T23:20:49.969Z,8.20
2022-11-12T23:23:16.979Z,8.14
2022-11-12T23:25:43.986Z,8.12
2022-11-12T23:28:10.739Z,8.13
2022-11-12T23:30:38.002Z,8.09
2022-11-12T23:33:04.546Z,8.09
2022-11-12T23:35:31.036Z,8.03
2022-11-12T23:37:57.519Z,8.04
2022-11-12T23:40:28.451Z,8.00
2022-11-12T23:42:57.386Z,8.04
2022-11-12T23:45:23.934Z,8.02
2022-11-12T23:47:50.422Z,8.04
2022-11-12T23:50:17.140Z,7.94
2022-11-12T23:52:43.713Z,7.93
2022-11-12T23:55:10.184Z,7.96
2022-11-12T23:57:36.633Z,7.92
